createdAt,value
2023-03-17T00:00:33.546Z,21.67
2023-03-17T00:03:06.805Z,21.35
2023-03-17T00:05:39.253Z,20.35
2023-03-17T00:08:19.415Z,21.85
2023-03-17T00:10:52.494Z,21.60
2023-03-17T00:13:25.149Z,30.27
2023-03-17T00:16:01.729Z,26.55
2023-03-17T00:18:33.910Z,29.52
2023-03-17T00:21:06.514Z,31.58
2023-03-17T00:23:39.935Z,24.65
2023-03-17T00:26:12.634Z,18.85
2023-03-17T00:28:45.681Z,17.88
2023-03-17T00:31:21.323Z,16.55
2023-03-17T00:33:54.785Z,16.38
2023-03-17T00:36:29.490Z,17.98
2023-03-17T00:39:03.662Z,16.02
2023-03-17T00:41:35.798Z,18.67
2023-03-17T00:44:08.122Z,15.38
2023-03-17T00:46:41.621Z,15.63
2023-03-17T00:51:48.834Z,15.23
2023-03-17T00:54:22.479Z,14.52
2023-03-17T00:56:54.597Z,14.40
2023-03-17T00:59:30.025Z,15.25
2023-03-17T01:02:02.086Z,13.60
2023-03-17T01:04:34.124Z,13.40
2023-03-17T01:07:06.395Z,16.30
2023-03-17T01:09:41.342Z,16.63
2023-03-17T01:12:16.421Z,17.55
2023-03-17T01:14:48.390Z,17.98
2023-03-17T01:17:20.937Z,18.75
2023-03-17T01:19:52.900Z,18.75
2023-03-17T01:22:25.641Z,17.35
2023-03-17T01:24:59.002Z,17.38
2023-03-17T01:27:35.187Z,15.02
2023-03-17T01:30:24.299Z,16.73
2023-03-17T01:32:57.643Z,18.48
2023-03-17T01:35:30.324Z,16.88
2023-03-17T01:38:03.520Z,16.40
2023-03-17T01:40:39.010Z,13.50
2023-03-17T01:43:19.372Z,11.20
2023-03-17T01:46:27.493Z,14.65
2023-03-17T01:49:09.494Z,13.30
2023-03-17T01:51:50.066Z,15.00
2023-03-17T01:54:28.296Z,12.95
2023-03-17T01:57:07.602Z,20.02
2023-03-17T01:59:45.657Z,18.13
2023-03-17T02:02:22.671Z,16.27
2023-03-17T02:04:55.487Z,13.25
2023-03-17T02:07:28.185Z,14.15
2023-03-17T02:10:00.865Z,14.00
2023-03-17T02:12:35.644Z,14.45
2023-03-17T02:15:09.453Z,14.88
2023-03-17T02:17:41.549Z,16.55
2023-03-17T02:20:51.837Z,15.07
2023-03-17T02:23:25.742Z,15.23
2023-03-17T02:25:57.763Z,16.30
2023-03-17T02:28:31.705Z,15.93
2023-03-17T02:31:04.697Z,19.00
2023-03-17T02:33:36.665Z,17.98
2023-03-17T02:36:09.686Z,17.17
2023-03-17T02:38:44.559Z,13.95
2023-03-17T02:41:16.990Z,14.45
2023-03-17T02:43:49.351Z,14.25
2023-03-17T02:46:21.361Z,13.00
2023-03-17T02:48:54.612Z,13.90
2023-03-17T02:51:27.176Z,14.82
2023-03-17T02:54:00.521Z,16.08
2023-03-17T02:56:32.862Z,10.02
2023-03-17T02:59:05.314Z,10.75
2023-03-17T03:01:38.937Z,15.30
2023-03-17T03:04:12.018Z,13.60
2023-03-17T03:06:44.853Z,11.18
2023-03-17T03:09:18.263Z,14.18
2023-03-17T03:11:50.301Z,11.98
2023-03-17T03:14:22.241Z,11.15
2023-03-17T03:16:54.472Z,10.15
2023-03-17T03:19:26.485Z,9.65
2023-03-17T03:21:58.452Z,7.57
2023-03-17T03:24:32.277Z,7.95
2023-03-17T03:27:04.522Z,8.70
2023-03-17T03:29:36.896Z,10.63
2023-03-17T03:32:08.889Z,16.88
2023-03-17T03:34:41.259Z,9.18
2023-03-17T03:37:13.361Z,10.77
2023-03-17T03:39:47.786Z,9.07
2023-03-17T03:42:19.760Z,8.20
2023-03-17T03:44:51.666Z,11.00
2023-03-17T03:47:23.644Z,10.35
2023-03-17T03:49:55.568Z,10.93
2023-03-17T03:52:27.590Z,14.98
2023-03-17T03:55:01.042Z,11.35
2023-03-17T03:57:33.057Z,21.98
2023-03-17T04:00:07.503Z,13.10
2023-03-17T04:02:46.781Z,8.90
2023-03-17T04:05:20.609Z,8.23
2023-03-17T04:07:53.037Z,9.27
2023-03-17T04:10:26.560Z,7.75
2023-03-17T04:12:58.604Z,7.88
2023-03-17T04:15:30.554Z,7.88
2023-03-17T04:18:02.701Z,8.52
2023-03-17T04:20:34.776Z,6.70
2023-03-17T04:23:08.001Z,7.97
2023-03-17T04:25:41.388Z,9.38
2023-03-17T04:28:13.362Z,7.15
2023-03-17T04:30:45.815Z,9.70
2023-03-17T04:33:19.027Z,5.95
2023-03-17T04:35:51.372Z,8.88
2023-03-17T04:38:23.605Z,7.13
2023-03-17T04:40:57.113Z,7.82
2023-03-17T04:43:29.080Z,7.55
2023-03-17T04:46:01.171Z,6.13
2023-03-17T04:48:33.116Z,7.38
2023-03-17T04:51:05.411Z,5.57
2023-03-17T04:53:37.585Z,5.78
2023-03-17T04:56:11.091Z,6.07
2023-03-17T04:58:43.025Z,7.72
2023-03-17T05:01:15.025Z,9.23
2023-03-17T05:03:47.279Z,7.25
2023-03-17T05:06:19.422Z,7.13
2023-03-17T05:08:51.530Z,6.43
2023-03-17T05:11:24.909Z,7.30
2023-03-17T05:13:57.125Z,7.53
2023-03-17T05:16:29.161Z,7.65
2023-03-17T05:19:01.126Z,14.73
2023-03-17T05:21:33.186Z,12.43
2023-03-17T05:24:05.567Z,9.95
2023-03-17T05:26:40.103Z,12.55
2023-03-17T05:29:12.099Z,17.55
2023-03-17T05:31:44.379Z,13.27
2023-03-17T05:34:16.415Z,11.85
2023-03-17T05:36:48.847Z,9.48
2023-03-17T05:39:20.851Z,9.23
2023-03-17T05:41:54.182Z,8.75
2023-03-17T05:44:26.295Z,10.00
2023-03-17T05:46:59.806Z,18.08
2023-03-17T05:49:32.149Z,14.00
2023-03-17T05:52:04.222Z,11.98
2023-03-17T05:54:36.229Z,14.68
2023-03-17T05:57:09.638Z,13.18
2023-03-17T05:59:42.681Z,13.20
2023-03-17T06:02:15.711Z,12.45
2023-03-17T06:04:47.693Z,12.20
2023-03-17T06:07:20.622Z,12.63
2023-03-17T06:09:52.574Z,12.98
2023-03-17T06:12:26.467Z,13.32
2023-03-17T06:14:58.404Z,13.75
2023-03-17T06:17:30.405Z,12.95
2023-03-17T06:20:04.194Z,13.57
2023-03-17T06:22:37.430Z,15.95
2023-03-17T06:25:10.753Z,14.60
2023-03-17T06:27:44.814Z,16.92
2023-03-17T06:30:17.152Z,15.40
2023-03-17T06:32:49.252Z,18.90
2023-03-17T06:35:22.532Z,21.77
2023-03-17T06:37:54.970Z,16.95
2023-03-17T06:40:27.056Z,20.88
2023-03-17T06:43:01.363Z,20.17
2023-03-17T06:45:33.683Z,19.80
2023-03-17T06:48:07.100Z,18.70
2023-03-17T06:50:39.355Z,18.88
2023-03-17T06:53:11.467Z,19.02
2023-03-17T06:55:43.547Z,21.52
2023-03-17T06:58:17.142Z,16.63
2023-03-17T07:00:49.227Z,18.27
2023-03-17T07:03:25.608Z,15.02
2023-03-17T07:05:58.145Z,14.43
2023-03-17T07:08:30.969Z,13.10
2023-03-17T07:11:04.653Z,13.00
2023-03-17T07:13:39.315Z,9.75
2023-03-17T07:16:12.475Z,10.13
2023-03-17T07:18:45.072Z,11.75
2023-03-17T07:21:17.519Z,14.63
2023-03-17T07:23:49.536Z,16.98
2023-03-17T07:26:21.520Z,13.77
2023-03-17T07:28:55.081Z,13.45
2023-03-17T07:31:27.110Z,11.32
2023-03-17T07:33:59.238Z,13.52
2023-03-17T07:36:31.189Z,10.30
2023-03-17T07:39:03.930Z,10.50
2023-03-17T07:41:36.748Z,10.90
2023-03-17T07:44:11.479Z,10.63
2023-03-17T07:46:43.522Z,12.15
2023-03-17T07:49:15.494Z,14.88
2023-03-17T07:51:47.580Z,13.15
2023-03-17T07:54:19.636Z,11.88
2023-03-17T07:56:51.582Z,9.57
2023-03-17T07:59:25.451Z,14.10
2023-03-17T08:01:58.362Z,11.85
2023-03-17T08:04:30.701Z,12.82
2023-03-17T08:07:03.278Z,8.48
2023-03-17T08:09:35.488Z,7.97
2023-03-17T08:12:09.323Z,7.20
2023-03-17T08:14:42.837Z,6.95
2023-03-17T08:17:14.824Z,6.65
2023-03-17T08:19:47.052Z,6.78
2023-03-17T08:22:19.437Z,5.93
2023-03-17T08:24:52.068Z,5.78
2023-03-17T08:27:24.210Z,4.60
2023-03-17T08:29:57.638Z,4.32
2023-03-17T08:32:29.687Z,4.45
2023-03-17T08:35:01.877Z,4.50
2023-03-17T08:37:33.814Z,3.88
2023-03-17T08:40:06.624Z,4.20
2023-03-17T08:42:38.889Z,4.90
2023-03-17T08:45:13.645Z,5.63
2023-03-17T08:47:46.338Z,4.00
2023-03-17T08:50:21.487Z,3.95
2023-03-17T08:52:54.337Z,4.97
2023-03-17T08:55:26.397Z,4.25
2023-03-17T08:57:58.319Z,3.70
2023-03-17T09:00:31.865Z,3.55
2023-03-17T09:03:05.813Z,3.20
2023-03-17T09:05:38.673Z,3.85
2023-03-17T09:08:12.145Z,3.00
2023-03-17T09:10:44.547Z,2.65
2023-03-17T09:13:17.815Z,2.53
2023-03-17T09:15:51.985Z,2.80
2023-03-17T09:18:24.352Z,2.22
2023-03-17T09:20:56.532Z,2.08
2023-03-17T09:23:28.477Z,2.10
2023-03-17T09:26:00.942Z,1.80
2023-03-17T09:28:33.937Z,2.05
2023-03-17T09:31:11.539Z,2.28
2023-03-17T09:33:43.913Z,2.35
2023-03-17T09:36:15.886Z,2.92
2023-03-17T09:38:47.858Z,2.50
2023-03-17T09:41:57.127Z,2.65
2023-03-17T09:44:54.645Z,2.78
2023-03-17T09:47:46.454Z,2.08
2023-03-17T09:50:24.085Z,2.70
2023-03-17T09:52:58.531Z,2.33
2023-03-17T09:55:32.796Z,2.80
2023-03-17T09:58:05.083Z,3.20
2023-03-17T10:00:37.008Z,1.42
2023-03-17T10:03:11.573Z,1.73
2023-03-17T10:05:43.792Z,2.20
2023-03-17T10:08:30.828Z,2.00
2023-03-17T10:11:14.900Z,2.10
2023-03-17T10:13:55.029Z,2.38
2023-03-17T10:16:38.248Z,1.58
2023-03-17T10:19:21.799Z,2.83
2023-03-17T10:21:59.081Z,4.03
2023-03-17T10:24:33.117Z,3.35
2023-03-17T10:27:06.613Z,2.20
2023-03-17T10:29:38.627Z,2.42
2023-03-17T10:32:13.275Z,1.65
2023-03-17T10:34:48.704Z,2.13
2023-03-17T10:37:23.908Z,2.08
2023-03-17T10:39:57.560Z,1.45
2023-03-17T10:42:32.357Z,2.13
2023-03-17T10:45:13.907Z,1.48
2023-03-17T10:47:48.155Z,1.35
2023-03-17T10:50:24.680Z,2.20
2023-03-17T10:52:59.292Z,3.33
2023-03-17T10:55:33.231Z,3.20
2023-03-17T10:58:07.895Z,2.17
2023-03-17T11:00:52.030Z,4.35
2023-03-17T11:03:27.502Z,2.00
2023-03-17T11:06:04.353Z,2.75
2023-03-17T11:08:40.451Z,2.85
2023-03-17T11:11:23.529Z,2.72
2023-03-17T11:14:02.243Z,2.80
2023-03-17T11:16:37.351Z,2.55
2023-03-17T11:19:16.137Z,2.80
2023-03-17T11:22:00.151Z,2.92
2023-03-17T11:24:34.160Z,2.53
2023-03-17T11:27:16.113Z,2.72
2023-03-17T11:30:16.660Z,3.28
2023-03-17T11:32:56.543Z,3.67
2023-03-17T11:35:43.505Z,3.47
2023-03-17T11:38:22.713Z,4.18
2023-03-17T11:41:09.684Z,3.30
2023-03-17T11:43:54.597Z,2.45
2023-03-17T11:46:30.990Z,3.00
2023-03-17T11:49:11.077Z,3.15
2023-03-17T11:51:54.539Z,3.00
2023-03-17T11:54:36.817Z,3.38
2023-03-17T11:57:13.472Z,2.80
2023-03-17T11:59:52.253Z,3.33
2023-03-17T12:02:30.756Z,3.03
2023-03-17T12:05:06.374Z,2.40
2023-03-17T12:07:44.680Z,2.65
2023-03-17T12:10:22.991Z,2.53
2023-03-17T12:12:59.665Z,2.67
2023-03-17T12:15:36.407Z,2.78
2023-03-17T12:18:14.117Z,2.40
2023-03-17T12:20:51.006Z,2.40
2023-03-17T12:23:33.088Z,2.55
2023-03-17T12:26:12.525Z,3.15
2023-03-17T12:28:51.244Z,3.03
2023-03-17T12:31:28.992Z,3.05
2023-03-17T12:34:08.502Z,2.80
2023-03-17T12:36:41.562Z,2.43
2023-03-17T12:39:16.375Z,2.80
2023-03-17T12:42:08.918Z,3.90
2023-03-17T12:44:58.216Z,3.13
2023-03-17T12:47:45.051Z,3.53
2023-03-17T12:50:46.436Z,2.97
2023-03-17T12:53:28.621Z,2.30
2023-03-17T12:56:10.008Z,3.42
2023-03-17T12:58:46.585Z,3.75
2023-03-17T13:01:27.269Z,3.13
2023-03-17T13:04:18.254Z,2.92
2023-03-17T13:06:58.495Z,3.25
2023-03-17T13:09:43.117Z,4.43
2023-03-17T13:12:52.579Z,4.85
2023-03-17T13:15:50.639Z,6.30
2023-03-17T13:18:29.728Z,6.97
2023-03-17T13:21:13.817Z,3.88
2023-03-17T13:23:48.173Z,4.13
2023-03-17T13:26:22.978Z,3.78
2023-03-17T13:28:54.929Z,4.65
2023-03-17T13:31:36.786Z,6.60
2023-03-17T13:34:14.356Z,5.07
2023-03-17T13:36:58.281Z,3.42
2023-03-17T13:40:01.728Z,3.03
2023-03-17T13:43:09.976Z,3.05
2023-03-17T13:45:44.662Z,3.72
2023-03-17T13:48:36.384Z,5.47
2023-03-17T13:51:18.611Z,6.55
2023-03-17T13:53:55.493Z,8.63
2023-03-17T13:56:46.672Z,6.95
2023-03-17T13:59:19.805Z,4.22
2023-03-17T14:01:57.677Z,6.00
2023-03-17T14:04:41.722Z,4.70
2023-03-17T14:07:18.936Z,4.80
2023-03-17T14:09:55.614Z,7.72
2023-03-17T14:12:36.821Z,4.28
2023-03-17T14:15:16.542Z,4.35
2023-03-17T14:17:54.041Z,4.60
2023-03-17T14:20:28.221Z,3.70
2023-03-17T14:23:02.144Z,4.00
2023-03-17T14:25:36.189Z,5.55
2023-03-17T14:28:13.967Z,7.13
2023-03-17T14:30:52.427Z,4.00
2023-03-17T14:33:27.075Z,5.40
2023-03-17T14:36:02.312Z,5.68
2023-03-17T14:38:36.940Z,3.38
2023-03-17T14:41:17.749Z,2.78
2023-03-17T14:43:52.238Z,2.78
2023-03-17T14:46:26.312Z,2.92
2023-03-17T14:49:01.182Z,2.80
2023-03-17T14:51:36.638Z,3.92
2023-03-17T14:54:14.376Z,3.45
2023-03-17T14:56:48.841Z,3.47
2023-03-17T14:59:27.041Z,3.10
2023-03-17T15:02:01.811Z,2.83
2023-03-17T15:04:34.530Z,2.55
2023-03-17T15:07:31.376Z,3.58
2023-03-17T15:10:05.059Z,3.50
2023-03-17T15:12:37.521Z,3.85
2023-03-17T15:15:21.668Z,3.80
2023-03-17T15:17:56.935Z,3.95
2023-03-17T15:20:31.685Z,4.90
2023-03-17T15:23:15.206Z,5.10
2023-03-17T15:25:51.284Z,5.53
2023-03-17T15:28:25.991Z,5.13
2023-03-17T15:31:11.458Z,5.93
2023-03-17T15:33:43.446Z,4.75
2023-03-17T15:36:31.437Z,6.72
2023-03-17T15:39:06.246Z,4.60
2023-03-17T15:41:38.185Z,6.07
2023-03-17T15:44:10.111Z,7.93
2023-03-17T15:46:42.219Z,5.90
2023-03-17T15:49:14.185Z,6.75
2023-03-17T15:51:46.222Z,6.22
2023-03-17T15:54:20.196Z,4.93
2023-03-17T15:56:52.316Z,5.50
2023-03-17T15:59:24.288Z,5.10
2023-03-17T16:01:56.333Z,5.50
2023-03-17T16:04:28.669Z,5.20
2023-03-17T16:07:00.812Z,4.93
2023-03-17T16:09:35.509Z,6.22
2023-03-17T16:12:11.074Z,7.22
2023-03-17T16:14:43.184Z,12.43
2023-03-17T16:17:19.801Z,14.15
2023-03-17T16:19:52.781Z,23.52
2023-03-17T16:22:37.687Z,22.83
2023-03-17T16:25:25.692Z,13.75
2023-03-17T16:27:59.469Z,14.45
2023-03-17T16:30:33.938Z,22.27
2023-03-17T16:33:15.274Z,21.25
2023-03-17T16:35:52.471Z,21.95
2023-03-17T16:38:27.186Z,18.33
2023-03-17T16:41:01.947Z,27.25
2023-03-17T16:43:37.968Z,18.60
2023-03-17T16:46:11.527Z,16.60
2023-03-17T16:48:43.549Z,13.75
2023-03-17T16:51:15.838Z,11.98
2023-03-17T16:53:48.010Z,12.00
2023-03-17T16:56:25.199Z,13.30
2023-03-17T16:58:57.542Z,10.82
2023-03-17T17:01:30.142Z,13.15
2023-03-17T17:04:02.167Z,14.45
2023-03-17T17:06:34.137Z,14.98
2023-03-17T17:09:06.161Z,10.57
2023-03-17T17:11:39.598Z,11.77
2023-03-17T17:14:11.536Z,14.45
2023-03-17T17:16:44.040Z,8.88
2023-03-17T17:19:17.114Z,13.07
2023-03-17T17:21:49.133Z,13.25
2023-03-17T17:24:21.434Z,11.40
2023-03-17T17:26:54.799Z,8.82
2023-03-17T17:29:26.927Z,9.02
2023-03-17T17:31:58.919Z,9.95
2023-03-17T17:34:31.052Z,14.20
2023-03-17T17:37:03.094Z,12.90
2023-03-17T17:39:35.272Z,11.82
2023-03-17T17:42:10.255Z,15.85
2023-03-17T17:44:42.955Z,12.60
2023-03-17T17:47:15.998Z,10.32
2023-03-17T17:49:48.053Z,9.40
2023-03-17T17:52:20.102Z,10.40
2023-03-17T17:54:52.095Z,11.02
2023-03-17T17:57:25.709Z,12.50
2023-03-17T17:59:57.981Z,14.85
2023-03-17T18:02:30.061Z,12.13
2023-03-17T18:05:02.274Z,13.80
2023-03-17T18:07:34.289Z,13.20
2023-03-17T18:10:07.494Z,11.52
2023-03-17T18:12:40.822Z,10.98
2023-03-17T18:15:13.093Z,9.65
2023-03-17T18:17:45.209Z,9.05
2023-03-17T18:20:19.032Z,9.07
2023-03-17T18:22:51.551Z,9.27
2023-03-17T18:25:27.225Z,8.68
2023-03-17T18:28:01.501Z,9.57
2023-03-17T18:30:35.240Z,6.57
2023-03-17T18:33:09.978Z,7.13
2023-03-17T18:35:42.590Z,7.53
2023-03-17T18:38:14.657Z,7.18
2023-03-17T18:40:46.848Z,12.55
2023-03-17T18:43:20.195Z,7.47
2023-03-17T18:45:52.169Z,95.53
2023-03-17T18:48:24.186Z,8.98
2023-03-17T18:50:56.204Z,8.02
2023-03-17T18:53:30.060Z,7.05
2023-03-17T18:56:02.258Z,9.40
2023-03-17T18:58:36.353Z,9.18
2023-03-17T19:01:08.895Z,10.20
2023-03-17T19:03:40.900Z,10.35
2023-03-17T19:06:15.085Z,11.02
2023-03-17T19:08:47.927Z,10.57
2023-03-17T19:11:21.689Z,8.45
2023-03-17T19:13:55.321Z,6.20
2023-03-17T19:16:29.122Z,6.35
2023-03-17T19:19:01.723Z,7.13
2023-03-17T19:21:33.807Z,7.28
2023-03-17T19:24:06.247Z,5.72
2023-03-17T19:26:38.255Z,5.78
2023-03-17T19:29:12.111Z,5.90
2023-03-17T19:31:44.328Z,6.10
2023-03-17T19:34:16.463Z,4.93
2023-03-17T19:36:48.516Z,4.28
2023-03-17T19:39:21.564Z,4.63
2023-03-17T19:41:55.521Z,4.22
2023-03-17T19:44:29.163Z,4.15
2023-03-17T19:47:05.034Z,4.47
2023-03-17T19:49:38.586Z,4.60
2023-03-17T19:52:10.585Z,4.63
2023-03-17T19:54:44.872Z,5.55
2023-03-17T19:57:19.131Z,4.75
2023-03-17T19:59:53.120Z,4.68
2023-03-17T20:02:25.774Z,4.97
2023-03-17T20:04:58.027Z,4.70
2023-03-17T20:07:30.000Z,5.13
2023-03-17T20:10:02.551Z,4.78
2023-03-17T20:12:38.295Z,5.38
2023-03-17T20:15:13.638Z,5.60
2023-03-17T20:17:45.713Z,4.20
2023-03-17T20:20:18.015Z,7.78
2023-03-17T20:22:49.991Z,4.47
2023-03-17T20:25:21.921Z,3.88
2023-03-17T20:27:53.904Z,3.35
2023-03-17T20:30:27.239Z,3.72
2023-03-17T20:33:00.067Z,3.47
2023-03-17T20:35:32.950Z,3.10
2023-03-17T20:38:05.445Z,3.03
2023-03-17T20:40:37.749Z,2.83
2023-03-17T20:43:09.874Z,2.60
2023-03-17T20:45:43.544Z,3.30
2023-03-17T20:48:15.496Z,3.40
2023-03-17T20:50:49.908Z,2.97
2023-03-17T20:53:22.030Z,3.60
2023-03-17T20:55:55.332Z,2.42
2023-03-17T20:58:27.845Z,3.78
2023-03-17T21:01:01.927Z,3.33
2023-03-17T21:03:33.990Z,4.15
2023-03-17T21:06:06.428Z,2.72
2023-03-17T21:08:38.892Z,5.72
2023-03-17T21:11:16.053Z,3.13
2023-03-17T21:13:48.059Z,3.30
2023-03-17T21:16:23.909Z,3.50
2023-03-17T21:18:56.299Z,2.70
2023-03-17T21:21:28.421Z,3.00
2023-03-17T21:24:02.317Z,4.00
2023-03-17T21:26:35.608Z,3.28
2023-03-17T21:29:07.759Z,2.90
2023-03-17T21:31:41.651Z,3.20
2023-03-17T21:34:14.212Z,3.85
2023-03-17T21:36:46.371Z,2.63
2023-03-17T21:39:19.052Z,3.45
2023-03-17T21:41:51.176Z,2.72
2023-03-17T21:44:23.269Z,3.55
2023-03-17T21:46:56.627Z,3.33
2023-03-17T21:49:28.939Z,2.65
2023-03-17T21:52:04.606Z,3.05
2023-03-17T21:54:37.118Z,7.47
2023-03-17T21:57:12.207Z,2.60
2023-03-17T21:59:44.239Z,2.92
2023-03-17T22:02:17.991Z,4.80
2023-03-17T22:04:50.288Z,3.80
2023-03-17T22:07:23.565Z,3.45
2023-03-17T22:09:57.861Z,2.78
2023-03-17T22:12:29.835Z,2.28
2023-03-17T22:15:02.054Z,2.88
2023-03-17T22:17:36.403Z,2.40
2023-03-17T22:20:10.684Z,1.90
2023-03-17T22:22:42.643Z,3.03
2023-03-17T22:25:14.792Z,2.70
2023-03-17T22:27:46.865Z,3.25
2023-03-17T22:30:19.068Z,4.10
2023-03-17T22:32:53.372Z,2.50
2023-03-17T22:35:25.372Z,2.83
2023-03-17T22:37:57.310Z,2.78
2023-03-17T22:40:30.411Z,2.40
2023-03-17T22:43:03.536Z,2.15
2023-03-17T22:45:35.629Z,2.10
2023-03-17T22:48:08.984Z,2.22
2023-03-17T22:50:42.267Z,2.88
2023-03-17T22:53:14.182Z,2.63
2023-03-17T22:55:46.407Z,2.42
2023-03-17T22:58:18.363Z,1.70
2023-03-17T23:00:50.475Z,3.95
2023-03-17T23:03:24.377Z,3.00
2023-03-17T23:05:58.802Z,2.38
2023-03-17T23:08:32.234Z,2.30
2023-03-17T23:11:06.591Z,2.63
2023-03-17T23:13:40.439Z,2.10
2023-03-17T23:16:12.775Z,2.22
2023-03-17T23:18:47.090Z,2.25
2023-03-17T23:21:22.712Z,2.67
2023-03-17T23:23:55.585Z,2.40
2023-03-17T23:26:29.161Z,2.22
2023-03-17T23:29:01.187Z,1.90
2023-03-17T23:31:34.184Z,2.90
2023-03-17T23:34:08.280Z,2.13
2023-03-17T23:36:40.689Z,2.13
2023-03-17T23:39:12.734Z,2.00
2023-03-17T23:41:45.119Z,2.40
2023-03-17T23:44:17.099Z,2.00
2023-03-17T23:46:49.045Z,2.88
2023-03-17T23:49:22.426Z,1.58
2023-03-17T23:51:54.666Z,1.52
2023-03-17T23:54:26.607Z,2.05
2023-03-17T23:56:58.554Z,2.97
2023-03-17T23:59:30.618Z,3.25
